Aeroporto :
LOGIN :

Iscrizione | Disclaimer

   EN    FR    IT 

 










Sommario :    VFR   VFR Marginale   IFR   IFR Intensivo   IFR Molto Intensivo
Visibilità : 
Base nubi : 
>= 8 km
>= 3000ft
5 / 8 km
1000 / 3000 ft
1500m / 5 km
500 / 1000 ft
800 / 1500m
200 / 500 ft
< 800m
< 200 ft
Simboli :   Temporali  Nebbia  Neve Forte  Precipitazioni Forti  Vento > 20 kt
SIGMETs :   Varie  Temporali  Ghiacco  Turbolenza  Onda orograficha  Ceneri Vulcaniche







- Altitudine del aeroporto : 156 ft
- Codice IATA : MLN


GEML - Melilla

ULTIMO METAR :
  • 201900Z AUTO 28019G33KT 240V320 CAVOK 15/09 Q1015

METARs OBSOLETI :
  • 201830Z AUTO 28017G29KT 230V320 CAVOK 15/09 Q1014
  • 201800Z 28017G33KT 230V310 9999 SCT026 15/09 Q1014 WS ALL RWY
  • 201730Z 28018G33KT 240V320 9999 SCT026 15/09 Q1013 WS ALL RWY
  • 201700Z 27022G35KT 220V320 9999 SCT028 15/09 Q1013 WS ALL RWY
  • 201630Z 28023G40KT 240V320 9999 SCT028 15/09 Q1012 WS ALL RWY

TAF TAF GEML
Valido dal 20 a 15 ore il 21 a 15 ore UTC


201400Z 2015/2115 28018KT 9999 SCT030 TX16/2015Z TN11/2106Z
PROB40
TEMPO 2015/2020 28030G43KT
PROB40
TEMPO 2106/2112 VRB03KT 4000 SHRA SCT030TCU
Nessun NOTAM noto per questo aeroporto.
1 SIGMET conosciuto per la FIR Casablanca (GMMM) :
 
Forte onda orograficha
GMMM SIGMET W5 VALID 201800/202200 GMMC
GMMM CASABLANCA FIR SEV MTW FCST SE OF LINE N3408 W00154 - N3346 W00 506 - N3004 W00855 FL060/200 STNR NC=



MetMap, La meteo Aeronautica in un colpo d'occhio ! - Copyright ORBIFLY Dicembre 2007 - Disclaimer

ORBIFLY MET'MAP TEAM :

Programmazione e sviluppo : Alexandra Zaïnal
Concezione e sviluppo : Baudouin d'Aumeries
Co-Programmazione e sviluppo : Marc-Olivier Méhu
Supporto tecnico e logistico : Manuel Goepfert
Aiuto per la traduzione : Arnaldo La Scala

Contatto : metmap@orbifly.com




FONTI E CREDITI :

   NOAA